sensor_id;sensor_type;location;lat;lon;timestamp;temperature;humidity
38756;DHT22;77170;43.486;-1.508;2024-03-23T00:54:32;15.00;64.40
38756;DHT22;77170;43.486;-1.508;2024-03-23T00:56:59;15.00;64.30
38756;DHT22;77170;43.486;-1.508;2024-03-23T00:59:25;15.00;64.50
38756;DHT22;77170;43.486;-1.508;2024-03-23T01:01:54;15.00;64.60
38756;DHT22;77170;43.486;-1.508;2024-03-23T01:04:21;15.00;64.60
38756;DHT22;77170;43.486;-1.508;2024-03-23T01:06:47;15.00;64.40
38756;DHT22;77170;43.486;-1.508;2024-03-23T01:09:16;15.00;63.90
38756;DHT22;77170;43.486;-1.508;2024-03-23T01:11:42;15.00;63.80
38756;DHT22;77170;43.486;-1.508;2024-03-23T01:14:08;14.90;63.80
38756;DHT22;77170;43.486;-1.508;2024-03-23T01:16:34;15.00;63.90
38756;DHT22;77170;43.486;-1.508;2024-03-23T01:19:01;15.10;63.70
38756;DHT22;77170;43.486;-1.508;2024-03-23T01:21:27;15.00;63.70
38756;DHT22;77170;43.486;-1.508;2024-03-23T01:23:53;15.10;63.70
38756;DHT22;77170;43.486;-1.508;2024-03-23T01:26:20;15.10;63.50
38756;DHT22;77170;43.486;-1.508;2024-03-23T01:28:46;15.00;63.40
38756;DHT22;77170;43.486;-1.508;2024-03-23T01:31:15;15.00;63.10
38756;DHT22;77170;43.486;-1.508;2024-03-23T01:33:41;15.00;62.90
38756;DHT22;77170;43.486;-1.508;2024-03-23T01:36:07;15.00;62.70
38756;DHT22;77170;43.486;-1.508;2024-03-23T01:38:36;15.00;62.70
38756;DHT22;77170;43.486;-1.508;2024-03-23T01:41:02;15.00;62.70
38756;DHT22;77170;43.486;-1.508;2024-03-23T01:43:29;15.00;62.70
38756;DHT22;77170;43.486;-1.508;2024-03-23T01:45:55;15.00;62.70
38756;DHT22;77170;43.486;-1.508;2024-03-23T01:48:21;15.10;62.60
38756;DHT22;77170;43.486;-1.508;2024-03-23T01:50:47;15.10;62.50
38756;DHT22;77170;43.486;-1.508;2024-03-23T01:53:17;15.00;62.30
38756;DHT22;77170;43.486;-1.508;2024-03-23T01:55:45;15.10;62.10
38756;DHT22;77170;43.486;-1.508;2024-03-23T01:58:12;15.00;61.60
38756;DHT22;77170;43.486;-1.508;2024-03-23T02:00:38;15.00;61.20
38756;DHT22;77170;43.486;-1.508;2024-03-23T02:03:25;15.00;61.20
38756;DHT22;77170;43.486;-1.508;2024-03-23T02:05:55;15.00;61.40
38756;DHT22;77170;43.486;-1.508;2024-03-23T02:08:23;15.00;61.20
38756;DHT22;77170;43.486;-1.508;2024-03-23T02:10:50;15.00;61.20
38756;DHT22;77170;43.486;-1.508;2024-03-23T02:13:17;15.00;61.00
38756;DHT22;77170;43.486;-1.508;2024-03-23T02:15:44;15.00;60.90
38756;DHT22;77170;43.486;-1.508;2024-03-23T02:18:10;15.00;60.80
38756;DHT22;77170;43.486;-1.508;2024-03-23T02:20:37;15.00;60.30
38756;DHT22;77170;43.486;-1.508;2024-03-23T02:23:04;15.00;60.50
38756;DHT22;77170;43.486;-1.508;2024-03-23T02:25:33;15.00;60.30
38756;DHT22;77170;43.486;-1.508;2024-03-23T02:28:00;14.90;60.40
38756;DHT22;77170;43.486;-1.508;2024-03-23T02:30:26;14.90;60.40
38756;DHT22;77170;43.486;-1.508;2024-03-23T02:32:52;15.00;60.50
38756;DHT22;77170;43.486;-1.508;2024-03-23T02:35:22;14.90;60.40
38756;DHT22;77170;43.486;-1.508;2024-03-23T02:37:48;14.90;60.20
38756;DHT22;77170;43.486;-1.508;2024-03-23T02:40:18;15.00;60.30
38756;DHT22;77170;43.486;-1.508;2024-03-23T02:42:54;14.90;60.00
38756;DHT22;77170;43.486;-1.508;2024-03-23T02:45:23;14.90;60.00
38756;DHT22;77170;43.486;-1.508;2024-03-23T02:47:55;14.90;60.30
38756;DHT22;77170;43.486;-1.508;2024-03-23T02:50:25;14.90;60.40
38756;DHT22;77170;43.486;-1.508;2024-03-23T02:52:54;14.90;60.60
38756;DHT22;77170;43.486;-1.508;2024-03-23T02:55:20;14.90;60.60
38756;DHT22;77170;43.486;-1.508;2024-03-23T02:57:49;14.90;60.70
38756;DHT22;77170;43.486;-1.508;2024-03-23T03:00:19;14.90;60.90
38756;DHT22;77170;43.486;-1.508;2024-03-23T03:02:54;14.90;60.80
38756;DHT22;77170;43.486;-1.508;2024-03-23T03:05:23;14.80;60.90
38756;DHT22;77170;43.486;-1.508;2024-03-23T03:07:49;14.80;60.80
38756;DHT22;77170;43.486;-1.508;2024-03-23T03:10:24;14.80;60.90
38756;DHT22;77170;43.486;-1.508;2024-03-23T03:13:05;14.80;61.10
38756;DHT22;77170;43.486;-1.508;2024-03-23T03:15:34;14.80;61.20
38756;DHT22;77170;43.486;-1.508;2024-03-23T03:18:04;14.90;61.20
38756;DHT22;77170;43.486;-1.508;2024-03-23T03:20:32;14.80;61.00
38756;DHT22;77170;43.486;-1.508;2024-03-23T03:23:04;14.90;61.00
38756;DHT22;77170;43.486;-1.508;2024-03-23T03:25:35;14.90;60.70
38756;DHT22;77170;43.486;-1.508;2024-03-23T03:28:02;14.90;60.60
38756;DHT22;77170;43.486;-1.508;2024-03-23T03:30:34;14.80;60.50
38756;DHT22;77170;43.486;-1.508;2024-03-23T03:33:00;14.70;60.60
38756;DHT22;77170;43.486;-1.508;2024-03-23T03:35:30;14.70;60.70
38756;DHT22;77170;43.486;-1.508;2024-03-23T03:37:56;14.60;60.70
38756;DHT22;77170;43.486;-1.508;2024-03-23T03:40:25;14.60;60.80
38756;DHT22;77170;43.486;-1.508;2024-03-23T03:42:52;14.60;60.90
38756;DHT22;77170;43.486;-1.508;2024-03-23T03:45:23;14.60;61.00
38756;DHT22;77170;43.486;-1.508;2024-03-23T03:47:55;14.60;60.90
38756;DHT22;77170;43.486;-1.508;2024-03-23T03:50:27;14.60;60.70
38756;DHT22;77170;43.486;-1.508;2024-03-23T03:52:53;14.60;60.50
38756;DHT22;77170;43.486;-1.508;2024-03-23T03:55:22;14.60;60.50
38756;DHT22;77170;43.486;-1.508;2024-03-23T03:57:51;14.70;60.50
38756;DHT22;77170;43.486;-1.508;2024-03-23T04:00:17;14.70;61.00
38756;DHT22;77170;43.486;-1.508;2024-03-23T04:02:44;14.70;60.20
38756;DHT22;77170;43.486;-1.508;2024-03-23T04:05:13;14.70;60.20
38756;DHT22;77170;43.486;-1.508;2024-03-23T04:07:39;14.70;60.20
38756;DHT22;77170;43.486;-1.508;2024-03-23T04:10:06;14.70;60.20
38756;DHT22;77170;43.486;-1.508;2024-03-23T04:12:34;14.80;60.20
38756;DHT22;77170;43.486;-1.508;2024-03-23T04:15:06;14.70;60.40
38756;DHT22;77170;43.486;-1.508;2024-03-23T04:17:37;14.70;61.00
38756;DHT22;77170;43.486;-1.508;2024-03-23T04:20:07;14.70;61.50
38756;DHT22;77170;43.486;-1.508;2024-03-23T04:22:37;14.70;61.70
38756;DHT22;77170;43.486;-1.508;2024-03-23T04:25:06;14.70;61.40
38756;DHT22;77170;43.486;-1.508;2024-03-23T04:27:37;14.50;61.30
38756;DHT22;77170;43.486;-1.508;2024-03-23T04:30:03;14.60;62.10
38756;DHT22;77170;43.486;-1.508;2024-03-23T04:32:35;14.50;62.90
38756;DHT22;77170;43.486;-1.508;2024-03-23T04:35:05;14.50;63.80
38756;DHT22;77170;43.486;-1.508;2024-03-23T04:37:35;14.50;64.60
38756;DHT22;77170;43.486;-1.508;2024-03-23T04:40:07;14.50;65.10
38756;DHT22;77170;43.486;-1.508;2024-03-23T04:42:33;14.40;65.50
38756;DHT22;77170;43.486;-1.508;2024-03-23T04:45:04;14.30;66.10
38756;DHT22;77170;43.486;-1.508;2024-03-23T04:47:31;14.30;67.10
38756;DHT22;77170;43.486;-1.508;2024-03-23T04:49:58;14.30;68.10
38756;DHT22;77170;43.486;-1.508;2024-03-23T04:52:30;14.30;69.10
38756;DHT22;77170;43.486;-1.508;2024-03-23T04:54:56;14.30;69.70
38756;DHT22;77170;43.486;-1.508;2024-03-23T04:57:25;14.20;69.90
38756;DHT22;77170;43.486;-1.508;2024-03-23T04:59:55;14.20;69.90
38756;DHT22;77170;43.486;-1.508;2024-03-23T05:02:23;14.20;69.60
38756;DHT22;77170;43.486;-1.508;2024-03-23T05:04:51;14.20;69.50
38756;DHT22;77170;43.486;-1.508;2024-03-23T05:07:17;14.30;69.40
38756;DHT22;77170;43.486;-1.508;2024-03-23T05:09:43;14.20;69.30
38756;DHT22;77170;43.486;-1.508;2024-03-23T05:12:09;14.20;69.40
38756;DHT22;77170;43.486;-1.508;2024-03-23T05:14:39;14.10;69.40
38756;DHT22;77170;43.486;-1.508;2024-03-23T05:17:13;14.10;69.20
38756;DHT22;77170;43.486;-1.508;2024-03-23T05:19:39;14.10;68.80
38756;DHT22;77170;43.486;-1.508;2024-03-23T05:22:10;14.10;68.80
38756;DHT22;77170;43.486;-1.508;2024-03-23T05:24:36;14.20;68.90
38756;DHT22;77170;43.486;-1.508;2024-03-23T05:27:05;14.20;68.90
38756;DHT22;77170;43.486;-1.508;2024-03-23T05:29:32;14.20;68.70
38756;DHT22;77170;43.486;-1.508;2024-03-23T05:31:58;14.10;68.60
38756;DHT22;77170;43.486;-1.508;2024-03-23T05:34:27;14.10;68.40
38756;DHT22;77170;43.486;-1.508;2024-03-23T05:36:54;14.10;68.30
38756;DHT22;77170;43.486;-1.508;2024-03-23T05:39:21;14.00;68.00
38756;DHT22;77170;43.486;-1.508;2024-03-23T05:41:49;14.00;67.90
38756;DHT22;77170;43.486;-1.508;2024-03-23T05:44:16;14.00;67.90
38756;DHT22;77170;43.486;-1.508;2024-03-23T05:46:42;14.00;67.80
38756;DHT22;77170;43.486;-1.508;2024-03-23T05:49:15;13.90;67.60
38756;DHT22;77170;43.486;-1.508;2024-03-23T05:51:44;13.90;67.60
38756;DHT22;77170;43.486;-1.508;2024-03-23T05:54:10;13.90;67.60
38756;DHT22;77170;43.486;-1.508;2024-03-23T05:56:36;13.90;67.70
38756;DHT22;77170;43.486;-1.508;2024-03-23T05:59:05;14.00;67.90
38756;DHT22;77170;43.486;-1.508;2024-03-23T06:01:32;13.90;67.10
38756;DHT22;77170;43.486;-1.508;2024-03-23T06:04:01;13.90;67.20
38756;DHT22;77170;43.486;-1.508;2024-03-23T06:06:28;13.90;66.00
38756;DHT22;77170;43.486;-1.508;2024-03-23T06:08:57;13.80;64.90
38756;DHT22;77170;43.486;-1.508;2024-03-23T06:11:23;13.80;64.90
38756;DHT22;77170;43.486;-1.508;2024-03-23T06:13:49;13.90;64.90
38756;DHT22;77170;43.486;-1.508;2024-03-23T06:16:16;13.90;64.60
38756;DHT22;77170;43.486;-1.508;2024-03-23T06:18:48;13.80;62.70
38756;DHT22;77170;43.486;-1.508;2024-03-23T06:21:20;13.80;63.20
38756;DHT22;77170;43.486;-1.508;2024-03-23T06:23:54;13.80;62.20
38756;DHT22;77170;43.486;-1.508;2024-03-23T06:26:21;13.80;61.80
38756;DHT22;77170;43.486;-1.508;2024-03-23T06:28:50;13.70;61.10
38756;DHT22;77170;43.486;-1.508;2024-03-23T06:31:16;13.80;61.90
38756;DHT22;77170;43.486;-1.508;2024-03-23T06:33:46;13.80;61.50
38756;DHT22;77170;43.486;-1.508;2024-03-23T06:36:13;13.80;61.10
38756;DHT22;77170;43.486;-1.508;2024-03-23T06:38:42;13.80;61.80
38756;DHT22;77170;43.486;-1.508;2024-03-23T06:41:11;13.80;60.30
38756;DHT22;77170;43.486;-1.508;2024-03-23T06:43:40;13.80;60.50
38756;DHT22;77170;43.486;-1.508;2024-03-23T06:46:09;13.90;60.60
38756;DHT22;77170;43.486;-1.508;2024-03-23T06:48:38;13.90;60.00
38756;DHT22;77170;43.486;-1.508;2024-03-23T06:51:06;13.80;60.30
38756;DHT22;77170;43.486;-1.508;2024-03-23T06:53:32;13.90;60.30
38756;DHT22;77170;43.486;-1.508;2024-03-23T06:56:01;13.90;60.50
38756;DHT22;77170;43.486;-1.508;2024-03-23T06:58:27;13.90;59.50
38756;DHT22;77170;43.486;-1.508;2024-03-23T07:00:56;14.00;60.10
38756;DHT22;77170;43.486;-1.508;2024-03-23T07:03:25;14.00;59.80
38756;DHT22;77170;43.486;-1.508;2024-03-23T07:05:57;14.10;59.80
38756;DHT22;77170;43.486;-1.508;2024-03-23T07:08:26;14.10;59.90
38756;DHT22;77170;43.486;-1.508;2024-03-23T07:10:56;14.20;60.20
38756;DHT22;77170;43.486;-1.508;2024-03-23T07:13:25;14.20;59.90
38756;DHT22;77170;43.486;-1.508;2024-03-23T07:15:54;14.20;59.40
38756;DHT22;77170;43.486;-1.508;2024-03-23T07:18:26;14.20;59.50
38756;DHT22;77170;43.486;-1.508;2024-03-23T07:21:00;14.20;59.10
38756;DHT22;77170;43.486;-1.508;2024-03-23T07:23:32;14.30;59.50
38756;DHT22;77170;43.486;-1.508;2024-03-23T07:26:04;14.30;59.00
38756;DHT22;77170;43.486;-1.508;2024-03-23T07:28:37;14.30;58.90
38756;DHT22;77170;43.486;-1.508;2024-03-23T07:31:10;14.40;58.90
38756;DHT22;77170;43.486;-1.508;2024-03-23T07:33:46;14.30;58.10
38756;DHT22;77170;43.486;-1.508;2024-03-23T07:36:22;14.20;58.00
38756;DHT22;77170;43.486;-1.508;2024-03-23T07:38:48;14.20;58.00
38756;DHT22;77170;43.486;-1.508;2024-03-23T07:41:20;14.20;58.40
38756;DHT22;77170;43.486;-1.508;2024-03-23T07:43:49;14.10;57.60
38756;DHT22;77170;43.486;-1.508;2024-03-23T07:46:18;14.20;57.90
38756;DHT22;77170;43.486;-1.508;2024-03-23T07:48:48;14.20;57.80
38756;DHT22;77170;43.486;-1.508;2024-03-23T07:51:22;14.20;57.30
38756;DHT22;77170;43.486;-1.508;2024-03-23T07:53:51;14.20;57.20
38756;DHT22;77170;43.486;-1.508;2024-03-23T07:56:20;14.20;57.00
38756;DHT22;77170;43.486;-1.508;2024-03-23T07:58:49;14.30;56.90
38756;DHT22;77170;43.486;-1.508;2024-03-23T08:01:19;14.40;56.70
38756;DHT22;77170;43.486;-1.508;2024-03-23T08:03:46;14.40;56.80
38756;DHT22;77170;43.486;-1.508;2024-03-23T08:08:43;14.60;56.20
38756;DHT22;77170;43.486;-1.508;2024-03-23T08:11:14;14.60;56.20
38756;DHT22;77170;43.486;-1.508;2024-03-23T08:13:45;14.70;56.30
38756;DHT22;77170;43.486;-1.508;2024-03-23T08:16:14;14.70;56.60
38756;DHT22;77170;43.486;-1.508;2024-03-23T08:18:43;14.70;55.70
38756;DHT22;77170;43.486;-1.508;2024-03-23T08:21:13;14.60;55.50
38756;DHT22;77170;43.486;-1.508;2024-03-23T08:23:39;14.70;55.90
38756;DHT22;77170;43.486;-1.508;2024-03-23T08:26:16;14.70;55.80
38756;DHT22;77170;43.486;-1.508;2024-03-23T08:28:43;14.60;55.10
38756;DHT22;77170;43.486;-1.508;2024-03-23T08:31:14;14.60;55.00
38756;DHT22;77170;43.486;-1.508;2024-03-23T08:33:48;14.50;54.90
38756;DHT22;77170;43.486;-1.508;2024-03-23T08:36:18;14.60;55.60
38756;DHT22;77170;43.486;-1.508;2024-03-23T08:38:47;14.60;55.50
38756;DHT22;77170;43.486;-1.508;2024-03-23T08:41:16;14.60;55.10
38756;DHT22;77170;43.486;-1.508;2024-03-23T08:43:45;14.50;54.70
38756;DHT22;77170;43.486;-1.508;2024-03-23T08:46:16;14.50;54.70
38756;DHT22;77170;43.486;-1.508;2024-03-23T08:48:44;14.60;54.30
38756;DHT22;77170;43.486;-1.508;2024-03-23T08:51:16;14.60;54.00
38756;DHT22;77170;43.486;-1.508;2024-03-23T08:53:43;14.60;54.00
38756;DHT22;77170;43.486;-1.508;2024-03-23T08:56:12;14.60;54.10
38756;DHT22;77170;43.486;-1.508;2024-03-23T08:58:41;14.70;53.90
38756;DHT22;77170;43.486;-1.508;2024-03-23T09:01:11;14.70;53.80
38756;DHT22;77170;43.486;-1.508;2024-03-23T09:03:40;14.70;53.60
38756;DHT22;77170;43.486;-1.508;2024-03-23T09:06:08;14.80;54.00
38756;DHT22;77170;43.486;-1.508;2024-03-23T09:08:37;14.90;54.20
38756;DHT22;77170;43.486;-1.508;2024-03-23T09:11:08;15.00;53.90
38756;DHT22;77170;43.486;-1.508;2024-03-23T09:13:38;15.10;53.20
38756;DHT22;77170;43.486;-1.508;2024-03-23T09:16:07;15.20;53.20
38756;DHT22;77170;43.486;-1.508;2024-03-23T09:18:37;15.30;53.40
38756;DHT22;77170;43.486;-1.508;2024-03-23T09:21:04;15.30;53.60
38756;DHT22;77170;43.486;-1.508;2024-03-23T09:23:42;15.30;53.40
38756;DHT22;77170;43.486;-1.508;2024-03-23T09:26:17;15.30;52.40
38756;DHT22;77170;43.486;-1.508;2024-03-23T09:28:49;15.20;51.90
38756;DHT22;77170;43.486;-1.508;2024-03-23T09:31:18;15.40;52.00
38756;DHT22;77170;43.486;-1.508;2024-03-23T09:33:48;15.50;51.90
38756;DHT22;77170;43.486;-1.508;2024-03-23T09:36:17;15.60;51.70
38756;DHT22;77170;43.486;-1.508;2024-03-23T09:38:46;15.70;51.40
38756;DHT22;77170;43.486;-1.508;2024-03-23T09:41:17;15.70;51.20
38756;DHT22;77170;43.486;-1.508;2024-03-23T09:43:43;15.60;51.10
38756;DHT22;77170;43.486;-1.508;2024-03-23T09:46:14;15.60;51.20
38756;DHT22;77170;43.486;-1.508;2024-03-23T09:48:41;15.50;51.20
38756;DHT22;77170;43.486;-1.508;2024-03-23T09:51:10;15.40;51.90
38756;DHT22;77170;43.486;-1.508;2024-03-23T09:53:37;15.20;52.10
38756;DHT22;77170;43.486;-1.508;2024-03-23T09:56:04;15.00;52.60
38756;DHT22;77170;43.486;-1.508;2024-03-23T09:58:30;15.00;52.60
38756;DHT22;77170;43.486;-1.508;2024-03-23T10:00:58;15.20;52.00
38756;DHT22;77170;43.486;-1.508;2024-03-23T10:03:24;15.30;52.00
38756;DHT22;77170;43.486;-1.508;2024-03-23T10:06:10;15.30;51.60
38756;DHT22;77170;43.486;-1.508;2024-03-23T10:08:37;15.40;51.10
38756;DHT22;77170;43.486;-1.508;2024-03-23T10:11:16;15.60;51.00
38756;DHT22;77170;43.486;-1.508;2024-03-23T10:13:43;15.80;51.00
38756;DHT22;77170;43.486;-1.508;2024-03-23T10:16:10;16.00;50.70
38756;DHT22;77170;43.486;-1.508;2024-03-23T10:18:40;16.10;50.60
38756;DHT22;77170;43.486;-1.508;2024-03-23T10:21:08;16.20;50.20
38756;DHT22;77170;43.486;-1.508;2024-03-23T10:23:41;16.30;50.20
38756;DHT22;77170;43.486;-1.508;2024-03-23T10:26:17;16.40;49.90
38756;DHT22;77170;43.486;-1.508;2024-03-23T10:28:58;16.60;49.90
38756;DHT22;77170;43.486;-1.508;2024-03-23T10:31:33;16.50;49.60
38756;DHT22;77170;43.486;-1.508;2024-03-23T10:33:59;16.40;49.70
38756;DHT22;77170;43.486;-1.508;2024-03-23T10:36:30;16.20;49.40
38756;DHT22;77170;43.486;-1.508;2024-03-23T10:39:07;16.10;49.50
38756;DHT22;77170;43.486;-1.508;2024-03-23T10:41:34;16.00;49.50
38756;DHT22;77170;43.486;-1.508;2024-03-23T10:44:05;15.90;49.80
38756;DHT22;77170;43.486;-1.508;2024-03-23T10:46:34;15.80;50.30
38756;DHT22;77170;43.486;-1.508;2024-03-23T10:49:04;15.80;50.20
38756;DHT22;77170;43.486;-1.508;2024-03-23T10:51:30;15.90;50.20
38756;DHT22;77170;43.486;-1.508;2024-03-23T10:54:00;16.10;50.30
38756;DHT22;77170;43.486;-1.508;2024-03-23T10:56:31;16.20;49.70
38756;DHT22;77170;43.486;-1.508;2024-03-23T10:59:06;16.20;49.50
38756;DHT22;77170;43.486;-1.508;2024-03-23T11:01:35;16.20;49.40
38756;DHT22;77170;43.486;-1.508;2024-03-23T11:04:35;16.10;49.40
38756;DHT22;77170;43.486;-1.508;2024-03-23T11:09:54;16.10;49.80
38756;DHT22;77170;43.486;-1.508;2024-03-23T11:14:55;16.50;49.50
38756;DHT22;77170;43.486;-1.508;2024-03-23T11:17:26;16.60;49.20
38756;DHT22;77170;43.486;-1.508;2024-03-23T11:20:00;16.60;49.20
38756;DHT22;77170;43.486;-1.508;2024-03-23T11:22:42;16.40;49.00
38756;DHT22;77170;43.486;-1.508;2024-03-23T11:25:22;16.40;48.70
38756;DHT22;77170;43.486;-1.508;2024-03-23T11:28:11;16.40;48.70
38756;DHT22;77170;43.486;-1.508;2024-03-23T11:30:40;16.60;48.50
38756;DHT22;77170;43.486;-1.508;2024-03-23T11:33:10;16.90;48.30
38756;DHT22;77170;43.486;-1.508;2024-03-23T11:35:40;16.90;47.90
38756;DHT22;77170;43.486;-1.508;2024-03-23T11:38:14;17.00;47.90
38756;DHT22;77170;43.486;-1.508;2024-03-23T11:40:49;17.20;47.50
38756;DHT22;77170;43.486;-1.508;2024-03-23T11:43:17;17.20;47.50
38756;DHT22;77170;43.486;-1.508;2024-03-23T11:45:51;17.20;47.60
38756;DHT22;77170;43.486;-1.508;2024-03-23T11:48:24;17.30;47.50
38756;DHT22;77170;43.486;-1.508;2024-03-23T11:50:57;17.10;47.60
38756;DHT22;77170;43.486;-1.508;2024-03-23T11:53:26;16.80;47.70
38756;DHT22;77170;43.486;-1.508;2024-03-23T11:55:59;16.40;47.90
38756;DHT22;77170;43.486;-1.508;2024-03-23T11:58:30;16.20;48.30
38756;DHT22;77170;43.486;-1.508;2024-03-23T12:01:02;16.00;48.40
38756;DHT22;77170;43.486;-1.508;2024-03-23T12:03:29;15.90;48.70
38756;DHT22;77170;43.486;-1.508;2024-03-23T12:06:00;15.70;49.10
38756;DHT22;77170;43.486;-1.508;2024-03-23T12:08:34;15.70;49.20
38756;DHT22;77170;43.486;-1.508;2024-03-23T12:11:11;15.70;49.40
38756;DHT22;77170;43.486;-1.508;2024-03-23T12:13:39;15.60;49.50
38756;DHT22;77170;43.486;-1.508;2024-03-23T12:16:24;15.60;49.70
38756;DHT22;77170;43.486;-1.508;2024-03-23T12:19:05;15.60;49.60
38756;DHT22;77170;43.486;-1.508;2024-03-23T12:21:37;15.60;49.70
38756;DHT22;77170;43.486;-1.508;2024-03-23T12:24:16;15.60;49.80
38756;DHT22;77170;43.486;-1.508;2024-03-23T12:26:45;15.60;49.70
38756;DHT22;77170;43.486;-1.508;2024-03-23T12:29:18;15.60;49.90
38756;DHT22;77170;43.486;-1.508;2024-03-23T12:31:49;15.60;49.80
38756;DHT22;77170;43.486;-1.508;2024-03-23T12:34:15;15.70;49.90
38756;DHT22;77170;43.486;-1.508;2024-03-23T12:36:41;15.70;49.50
38756;DHT22;77170;43.486;-1.508;2024-03-23T12:39:10;15.70;49.40
38756;DHT22;77170;43.486;-1.508;2024-03-23T12:41:37;15.80;49.20
38756;DHT22;77170;43.486;-1.508;2024-03-23T12:44:03;15.70;49.10
38756;DHT22;77170;43.486;-1.508;2024-03-23T12:46:34;15.70;49.00
38756;DHT22;77170;43.486;-1.508;2024-03-23T12:49:03;15.70;49.20
38756;DHT22;77170;43.486;-1.508;2024-03-23T12:51:32;15.70;49.10
38756;DHT22;77170;43.486;-1.508;2024-03-23T12:54:01;15.70;48.90
38756;DHT22;77170;43.486;-1.508;2024-03-23T12:56:33;15.70;48.60
38756;DHT22;77170;43.486;-1.508;2024-03-23T12:59:01;15.80;48.50
38756;DHT22;77170;43.486;-1.508;2024-03-23T13:01:28;15.80;48.50
38756;DHT22;77170;43.486;-1.508;2024-03-23T13:03:54;15.70;48.20
38756;DHT22;77170;43.486;-1.508;2024-03-23T13:06:29;15.90;48.40
38756;DHT22;77170;43.486;-1.508;2024-03-23T13:09:01;15.90;48.10
38756;DHT22;77170;43.486;-1.508;2024-03-23T13:11:33;15.80;47.90
38756;DHT22;77170;43.486;-1.508;2024-03-23T13:14:02;15.80;47.60
38756;DHT22;77170;43.486;-1.508;2024-03-23T13:16:29;15.70;47.50
38756;DHT22;77170;43.486;-1.508;2024-03-23T13:18:59;15.80;47.60
38756;DHT22;77170;43.486;-1.508;2024-03-23T13:21:29;15.80;47.50
38756;DHT22;77170;43.486;-1.508;2024-03-23T13:23:55;15.80;47.30
38756;DHT22;77170;43.486;-1.508;2024-03-23T13:26:27;15.80;47.20
38756;DHT22;77170;43.486;-1.508;2024-03-23T13:28:53;15.80;47.10
38756;DHT22;77170;43.486;-1.508;2024-03-23T13:31:22;15.80;47.00
38756;DHT22;77170;43.486;-1.508;2024-03-23T13:33:52;15.90;47.00
38756;DHT22;77170;43.486;-1.508;2024-03-23T13:36:24;15.80;47.10
38756;DHT22;77170;43.486;-1.508;2024-03-23T13:38:53;15.90;47.00
38756;DHT22;77170;43.486;-1.508;2024-03-23T13:41:22;15.90;46.90
38756;DHT22;77170;43.486;-1.508;2024-03-23T13:43:56;16.00;46.90
38756;DHT22;77170;43.486;-1.508;2024-03-23T13:46:25;16.00;46.90
38756;DHT22;77170;43.486;-1.508;2024-03-23T13:48:54;16.00;46.90
38756;DHT22;77170;43.486;-1.508;2024-03-23T13:51:24;16.10;46.80
38756;DHT22;77170;43.486;-1.508;2024-03-23T13:53:56;16.10;46.30
38756;DHT22;77170;43.486;-1.508;2024-03-23T13:56:29;16.20;46.70
38756;DHT22;77170;43.486;-1.508;2024-03-23T13:58:58;16.20;46.10
38756;DHT22;77170;43.486;-1.508;2024-03-23T14:01:24;16.30;46.10
38756;DHT22;77170;43.486;-1.508;2024-03-23T14:03:55;16.40;46.10
38756;DHT22;77170;43.486;-1.508;2024-03-23T14:06:25;16.40;45.60
38756;DHT22;77170;43.486;-1.508;2024-03-23T14:08:57;16.40;45.50
38756;DHT22;77170;43.486;-1.508;2024-03-23T14:11:23;16.80;45.20
38756;DHT22;77170;43.486;-1.508;2024-03-23T14:13:54;17.70;43.50
38756;DHT22;77170;43.486;-1.508;2024-03-23T14:16:21;18.70;41.90
38756;DHT22;77170;43.486;-1.508;2024-03-23T14:18:47;19.20;40.70
38756;DHT22;77170;43.486;-1.508;2024-03-23T14:21:13;19.40;40.30
38756;DHT22;77170;43.486;-1.508;2024-03-23T14:23:40;19.40;40.50
38756;DHT22;77170;43.486;-1.508;2024-03-23T14:26:08;19.50;40.40
38756;DHT22;77170;43.486;-1.508;2024-03-23T14:28:34;19.50;40.60
38756;DHT22;77170;43.486;-1.508;2024-03-23T14:31:00;19.60;40.20
38756;DHT22;77170;43.486;-1.508;2024-03-23T14:33:27;19.70;40.60
38756;DHT22;77170;43.486;-1.508;2024-03-23T14:35:55;19.70;40.80
38756;DHT22;77170;43.486;-1.508;2024-03-23T14:38:23;19.70;40.60
38756;DHT22;77170;43.486;-1.508;2024-03-23T14:40:49;19.60;40.40
38756;DHT22;77170;43.486;-1.508;2024-03-23T14:43:15;19.60;40.50
38756;DHT22;77170;43.486;-1.508;2024-03-23T14:46:10;19.60;40.30
38756;DHT22;77170;43.486;-1.508;2024-03-23T14:48:37;19.60;40.50
38756;DHT22;77170;43.486;-1.508;2024-03-23T14:51:03;19.60;40.60
38756;DHT22;77170;43.486;-1.508;2024-03-23T14:53:31;19.50;39.80
38756;DHT22;77170;43.486;-1.508;2024-03-23T14:55:57;19.50;40.10
38756;DHT22;77170;43.486;-1.508;2024-03-23T14:58:23;19.50;40.30
38756;DHT22;77170;43.486;-1.508;2024-03-23T15:00:50;19.40;39.60
38756;DHT22;77170;43.486;-1.508;2024-03-23T15:03:17;19.30;39.80
38756;DHT22;77170;43.486;-1.508;2024-03-23T15:05:58;19.30;39.90
38756;DHT22;77170;43.486;-1.508;2024-03-23T15:08:27;19.20;39.70
38756;DHT22;77170;43.486;-1.508;2024-03-23T15:10:53;19.20;39.70
38756;DHT22;77170;43.486;-1.508;2024-03-23T15:13:19;19.10;39.90
38756;DHT22;77170;43.486;-1.508;2024-03-23T15:15:48;19.10;40.10
38756;DHT22;77170;43.486;-1.508;2024-03-23T15:18:14;19.00;40.00
38756;DHT22;77170;43.486;-1.508;2024-03-23T15:20:42;19.00;40.10
38756;DHT22;77170;43.486;-1.508;2024-03-23T15:23:10;18.90;40.10
38756;DHT22;77170;43.486;-1.508;2024-03-23T15:25:36;18.80;40.10
38756;DHT22;77170;43.486;-1.508;2024-03-23T15:28:02;18.80;40.20
38756;DHT22;77170;43.486;-1.508;2024-03-23T15:30:28;18.70;40.30
38756;DHT22;77170;43.486;-1.508;2024-03-23T15:32:55;18.70;40.40
38756;DHT22;77170;43.486;-1.508;2024-03-23T15:35:21;18.60;40.50
38756;DHT22;77170;43.486;-1.508;2024-03-23T15:37:49;18.60;40.70
38756;DHT22;77170;43.486;-1.508;2024-03-23T15:40:15;18.70;41.30
38756;DHT22;77170;43.486;-1.508;2024-03-23T15:42:42;18.80;40.70
38756;DHT22;77170;43.486;-1.508;2024-03-23T15:45:08;18.80;40.50
38756;DHT22;77170;43.486;-1.508;2024-03-23T15:47:35;18.90;40.50
38756;DHT22;77170;43.486;-1.508;2024-03-23T15:50:01;18.70;40.20
38756;DHT22;77170;43.486;-1.508;2024-03-23T15:52:34;18.70;40.40
38756;DHT22;77170;43.486;-1.508;2024-03-23T15:55:01;18.60;40.50
38756;DHT22;77170;43.486;-1.508;2024-03-23T15:57:31;18.60;40.70
38756;DHT22;77170;43.486;-1.508;2024-03-23T15:59:57;18.40;40.90
38756;DHT22;77170;43.486;-1.508;2024-03-23T16:02:23;18.30;40.90
38756;DHT22;77170;43.486;-1.508;2024-03-23T16:04:49;18.30;41.20
38756;DHT22;77170;43.486;-1.508;2024-03-23T16:07:15;18.30;40.90
38756;DHT22;77170;43.486;-1.508;2024-03-23T16:09:42;18.30;41.10
38756;DHT22;77170;43.486;-1.508;2024-03-23T16:12:08;18.30;41.10
38756;DHT22;77170;43.486;-1.508;2024-03-23T16:14:34;18.30;41.10
38756;DHT22;77170;43.486;-1.508;2024-03-23T16:17:03;18.20;41.10
38756;DHT22;77170;43.486;-1.508;2024-03-23T16:19:29;18.20;41.10
38756;DHT22;77170;43.486;-1.508;2024-03-23T16:21:55;18.20;41.20
38756;DHT22;77170;43.486;-1.508;2024-03-23T16:24:22;18.10;41.20
38756;DHT22;77170;43.486;-1.508;2024-03-23T16:26:48;18.10;41.10
38756;DHT22;77170;43.486;-1.508;2024-03-23T16:29:15;18.00;41.20